createdAt,value
2023-05-16T00:00:56.073Z,59.00
2023-05-16T00:03:23.065Z,59.10
2023-05-16T00:05:50.775Z,59.50
2023-05-16T00:08:17.769Z,58.60
2023-05-16T00:10:44.806Z,58.90
2023-05-16T00:13:11.791Z,58.90
2023-05-16T00:15:38.769Z,59.20
2023-05-16T00:18:06.159Z,58.80
2023-05-16T00:20:33.141Z,58.50
2023-05-16T00:23:01.228Z,59.20
2023-05-16T00:25:28.912Z,59.20
2023-05-16T00:27:55.889Z,59.00
2023-05-16T00:30:22.910Z,59.40
2023-05-16T00:32:52.155Z,59.60
2023-05-16T00:35:19.124Z,59.70
2023-05-16T00:37:46.317Z,59.60
2023-05-16T00:40:13.393Z,59.80
2023-05-16T00:42:40.341Z,59.50
2023-05-16T00:45:08.291Z,60.00
2023-05-16T00:47:36.421Z,59.60
2023-05-16T00:50:04.161Z,60.60
2023-05-16T00:52:33.660Z,59.60
2023-05-16T00:55:01.490Z,59.20
2023-05-16T00:57:28.581Z,60.10
2023-05-16T00:59:55.800Z,59.50
2023-05-16T01:02:22.943Z,59.80
2023-05-16T01:04:51.839Z,60.50
2023-05-16T01:07:19.033Z,59.90
2023-05-16T01:09:46.183Z,59.80
2023-05-16T01:12:38.330Z,59.70
2023-05-16T01:15:08.645Z,60.10
2023-05-16T01:17:53.338Z,60.10
2023-05-16T01:20:59.719Z,59.40
2023-05-16T01:23:40.105Z,59.60
2023-05-16T01:26:28.545Z,60.30
2023-05-16T01:28:56.051Z,60.90
2023-05-16T01:31:24.308Z,60.50
2023-05-16T01:33:51.947Z,60.20
2023-05-16T01:36:33.170Z,60.40
2023-05-16T01:39:05.169Z,60.20
2023-05-16T01:41:58.475Z,60.70
2023-05-16T01:44:33.208Z,60.90
2023-05-16T01:47:03.760Z,60.40
2023-05-16T01:49:49.376Z,61.20
2023-05-16T01:52:23.872Z,61.40
2023-05-16T01:54:54.480Z,61.00
2023-05-16T01:57:26.313Z,60.80
2023-05-16T01:59:53.749Z,60.70
2023-05-16T02:02:21.388Z,61.50
2023-05-16T02:04:48.362Z,61.30
2023-05-16T02:07:16.090Z,61.80
2023-05-16T02:09:45.590Z,61.40
2023-05-16T02:12:12.754Z,61.90
2023-05-16T02:14:39.735Z,61.70
2023-05-16T02:17:07.170Z,61.50
2023-05-16T02:19:34.417Z,62.40
2023-05-16T02:22:01.371Z,61.80
2023-05-16T02:24:28.289Z,61.80
2023-05-16T02:26:55.890Z,61.90
2023-05-16T02:29:23.083Z,61.90
2023-05-16T02:31:50.053Z,62.10
2023-05-16T02:34:17.054Z,62.60
2023-05-16T02:36:44.017Z,62.40
2023-05-16T02:39:11.325Z,62.30
2023-05-16T02:41:38.297Z,62.30
2023-05-16T02:44:05.576Z,62.20
2023-05-16T02:46:34.941Z,62.40
2023-05-16T02:49:04.051Z,62.50
2023-05-16T02:51:31.468Z,62.90
2023-05-16T02:53:59.843Z,63.10
2023-05-16T02:56:27.630Z,62.90
2023-05-16T02:58:55.477Z,63.30
2023-05-16T03:01:22.704Z,63.40
2023-05-16T03:03:49.866Z,62.90
2023-05-16T03:06:16.931Z,63.20
2023-05-16T03:08:44.247Z,63.00
2023-05-16T03:11:11.258Z,62.70
2023-05-16T03:13:38.224Z,62.90
2023-05-16T03:16:06.172Z,62.80
2023-05-16T03:18:33.409Z,62.60
2023-05-16T03:21:01.499Z,63.10
2023-05-16T03:23:28.604Z,63.00
2023-05-16T03:25:56.364Z,63.40
2023-05-16T03:28:23.414Z,63.20
2023-05-16T03:30:50.399Z,63.70
2023-05-16T03:33:17.542Z,63.50
2023-05-16T03:35:44.894Z,64.10
2023-05-16T03:38:12.394Z,63.70
2023-05-16T03:40:40.543Z,64.00
2023-05-16T03:43:07.534Z,63.40
2023-05-16T03:45:34.761Z,63.40
2023-05-16T03:48:01.891Z,63.30
2023-05-16T03:50:28.939Z,63.40
2023-05-16T03:52:56.108Z,63.60
2023-05-16T03:55:23.093Z,63.50
2023-05-16T03:57:51.327Z,63.30
2023-05-16T04:00:18.452Z,63.60
2023-05-16T04:02:45.876Z,63.40
2023-05-16T04:05:14.100Z,63.80
2023-05-16T04:07:41.475Z,63.60
2023-05-16T04:10:10.139Z,63.80
2023-05-16T04:12:37.629Z,64.10
2023-05-16T04:15:06.230Z,64.20
2023-05-16T04:17:34.337Z,63.80
2023-05-16T04:20:01.566Z,63.90
2023-05-16T04:22:28.674Z,63.90
2023-05-16T04:24:55.705Z,63.50
2023-05-16T04:27:23.541Z,63.40
2023-05-16T04:29:50.725Z,63.50
2023-05-16T04:32:18.273Z,63.10
2023-05-16T04:34:46.761Z,63.10
2023-05-16T04:37:14.201Z,63.10
2023-05-16T04:39:42.674Z,62.70
2023-05-16T04:42:09.644Z,62.90
2023-05-16T04:44:36.575Z,62.70
2023-05-16T04:47:03.722Z,62.70
2023-05-16T04:49:30.835Z,62.90
2023-05-16T04:51:57.814Z,62.40
2023-05-16T04:54:24.795Z,58.90
2023-05-16T04:56:51.769Z,59.20
2023-05-16T04:59:18.677Z,61.10
2023-05-16T05:01:45.676Z,62.30
2023-05-16T05:04:12.730Z,62.50
2023-05-16T05:06:39.695Z,63.20
2023-05-16T05:09:06.829Z,64.90
2023-05-16T05:11:33.896Z,65.50
2023-05-16T05:14:01.089Z,65.60
2023-05-16T05:16:28.169Z,66.40
2023-05-16T05:18:55.224Z,66.50
2023-05-16T05:21:24.142Z,65.30
2023-05-16T05:23:51.395Z,65.40
2023-05-16T05:26:19.132Z,66.00
2023-05-16T05:28:53.847Z,66.40
2023-05-16T05:31:24.730Z,65.20
2023-05-16T05:33:51.795Z,66.00
2023-05-16T05:36:18.745Z,65.10
2023-05-16T05:38:45.839Z,64.30
2023-05-16T05:41:12.842Z,64.30
2023-05-16T05:43:39.767Z,63.30
2023-05-16T05:46:07.272Z,63.70
2023-05-16T05:48:34.565Z,62.40
2023-05-16T05:51:01.580Z,62.60
2023-05-16T05:53:28.567Z,63.00
2023-05-16T05:55:55.527Z,62.30
2023-05-16T05:58:22.644Z,65.80
2023-05-16T06:00:49.696Z,64.60
2023-05-16T06:03:16.710Z,61.90
2023-05-16T06:05:43.811Z,62.30
2023-05-16T06:08:11.030Z,62.60
2023-05-16T06:10:38.006Z,59.70
2023-05-16T06:13:04.966Z,61.20
2023-05-16T06:15:32.204Z,64.70
2023-05-16T06:17:59.524Z,59.30
2023-05-16T06:20:26.602Z,60.00
2023-05-16T06:22:53.654Z,60.40
2023-05-16T06:25:20.669Z,64.50
2023-05-16T15:19:35.698Z,51.90
2023-05-16T15:22:02.843Z,43.20
2023-05-16T15:24:29.953Z,48.30
2023-05-16T15:26:57.821Z,49.20
2023-05-16T15:29:26.334Z,43.60
2023-05-16T15:31:53.391Z,45.10
2023-05-16T15:34:20.489Z,48.10
2023-05-16T15:36:47.535Z,42.40
2023-05-16T15:39:14.554Z,48.40
2023-05-16T15:42:05.305Z,49.30
2023-05-16T15:44:28.560Z,48.50
2023-05-16T15:46:55.664Z,50.50
2023-05-16T15:49:22.798Z,55.00
2023-05-16T15:51:51.207Z,49.70
2023-05-16T15:54:20.071Z,48.00
2023-05-16T15:56:47.716Z,48.70
2023-05-16T15:59:14.716Z,53.00
2023-05-16T16:01:41.822Z,46.70
2023-05-16T16:04:08.975Z,48.00
2023-05-16T16:06:36.006Z,49.30
2023-05-16T16:09:04.095Z,47.50
2023-05-16T16:11:31.167Z,48.50
2023-05-16T16:13:58.175Z,43.30
2023-05-16T16:16:25.202Z,49.80
2023-05-16T16:18:53.574Z,45.90
2023-05-16T16:21:20.789Z,51.90
2023-05-16T16:23:47.902Z,48.30
2023-05-16T16:26:14.891Z,48.50
2023-05-16T16:28:42.227Z,47.70
2023-05-16T16:31:10.177Z,48.50
2023-05-16T16:33:37.256Z,51.50
2023-05-16T16:36:04.473Z,54.30
2023-05-16T16:38:31.665Z,54.90
2023-05-16T16:40:58.585Z,55.80
2023-05-16T16:43:25.591Z,53.50
2023-05-16T16:45:52.607Z,55.80
2023-05-16T16:48:19.792Z,50.40
2023-05-16T16:50:47.229Z,53.30
2023-05-16T16:53:14.363Z,53.50
2023-05-16T16:55:41.428Z,51.40
2023-05-16T16:58:08.494Z,55.00
2023-05-16T17:00:35.675Z,52.40
2023-05-16T17:03:05.013Z,44.80
2023-05-16T17:05:32.118Z,49.60
2023-05-16T17:07:59.151Z,51.30
2023-05-16T17:10:26.375Z,47.50
2023-05-16T17:12:54.630Z,47.10
2023-05-16T17:15:22.170Z,43.80
2023-05-16T17:17:49.521Z,48.50
2023-05-16T17:20:16.723Z,51.70
2023-05-16T17:22:44.744Z,50.50
2023-05-16T17:25:11.790Z,48.30
2023-05-16T17:27:38.773Z,47.40
2023-05-16T17:30:07.109Z,48.80
2023-05-16T17:32:34.296Z,46.70
2023-05-16T17:35:03.987Z,45.80
2023-05-16T17:37:31.061Z,47.30
2023-05-16T17:39:58.706Z,46.00
2023-05-16T17:42:25.835Z,49.80
2023-05-16T17:44:53.069Z,50.00
2023-05-16T17:47:20.419Z,51.60
2023-05-16T17:49:48.778Z,49.10
2023-05-16T17:52:15.811Z,48.40
2023-05-16T17:54:43.569Z,53.10
2023-05-16T17:57:10.698Z,54.10
2023-05-16T17:59:37.917Z,46.40
2023-05-16T18:02:09.872Z,52.50
2023-05-16T18:04:37.130Z,53.60
2023-05-16T18:07:04.166Z,49.70
2023-05-16T18:09:31.547Z,51.20
2023-05-16T18:11:58.529Z,46.70
2023-05-16T18:14:26.087Z,44.80
2023-05-16T18:16:53.088Z,47.10
2023-05-16T18:19:20.308Z,46.00
2023-05-16T18:21:47.313Z,47.60
2023-05-16T18:24:15.962Z,46.80
2023-05-16T18:26:44.529Z,46.70
2023-05-16T18:29:11.857Z,47.80
2023-05-16T18:31:41.211Z,48.00
2023-05-16T18:34:12.058Z,46.00
2023-05-16T18:36:39.200Z,45.60
2023-05-16T18:39:07.137Z,45.70
2023-05-16T18:41:34.292Z,46.00
2023-05-16T18:44:01.273Z,47.50
2023-05-16T18:46:28.400Z,47.30
2023-05-16T18:48:57.831Z,47.90
2023-05-16T18:51:25.744Z,47.20
2023-05-16T18:53:53.024Z,48.20
2023-05-16T18:56:20.011Z,47.50
2023-05-16T18:58:47.867Z,50.80
2023-05-16T19:01:14.883Z,47.00
2023-05-16T19:03:42.052Z,47.90
2023-05-16T19:06:09.118Z,48.30
2023-05-16T19:08:47.067Z,47.70
2023-05-16T19:11:16.774Z,47.60
2023-05-16T19:13:44.835Z,47.60
2023-05-16T19:16:11.931Z,48.40
2023-05-16T19:18:39.281Z,47.60
2023-05-16T19:21:13.194Z,48.00
2023-05-16T19:23:40.533Z,49.60
2023-05-16T19:26:07.692Z,49.60
2023-05-16T19:28:35.065Z,49.20
2023-05-16T19:31:02.091Z,49.40
2023-05-16T19:33:29.164Z,49.70
2023-05-16T19:35:58.547Z,49.70
2023-05-16T19:38:25.994Z,50.00
2023-05-16T19:40:53.334Z,50.90
2023-05-16T19:43:20.444Z,50.40
2023-05-16T19:45:47.569Z,50.40
2023-05-16T19:48:14.918Z,50.90
2023-05-16T19:50:42.581Z,51.10
2023-05-16T19:53:09.579Z,52.30
2023-05-16T19:55:38.173Z,50.70
2023-05-16T19:58:05.283Z,51.70
2023-05-16T20:00:32.448Z,51.70
2023-05-16T20:02:59.562Z,51.40
2023-05-16T20:05:27.139Z,52.30
2023-05-16T20:07:55.380Z,52.10
2023-05-16T20:10:22.420Z,52.10
2023-05-16T20:12:49.620Z,50.90
2023-05-16T20:15:16.713Z,51.00
2023-05-16T20:17:43.709Z,50.90
2023-05-16T20:20:11.181Z,51.30
2023-05-16T20:22:41.792Z,51.20
2023-05-16T20:25:10.887Z,51.30
2023-05-16T20:27:38.390Z,52.40
2023-05-16T20:30:06.919Z,52.00
2023-05-16T20:32:34.656Z,51.80
2023-05-16T20:35:04.577Z,52.50
2023-05-16T20:37:31.558Z,52.60
2023-05-16T20:39:58.510Z,52.80
2023-05-16T20:42:25.615Z,53.50
2023-05-16T20:44:52.615Z,52.60
2023-05-16T20:47:19.567Z,53.30
2023-05-16T20:49:46.511Z,53.70
2023-05-16T20:52:13.573Z,53.80
2023-05-16T20:54:41.879Z,54.00
2023-05-16T20:57:09.124Z,53.50
2023-05-16T20:59:40.501Z,53.90
2023-05-16T21:02:10.118Z,54.50
2023-05-16T21:04:38.271Z,54.00
2023-05-16T21:07:08.062Z,54.50
2023-05-16T21:09:36.922Z,55.20
2023-05-16T21:12:04.587Z,54.40
2023-05-16T21:14:31.622Z,54.70
2023-05-16T21:16:58.981Z,54.80
2023-05-16T21:19:26.072Z,55.20
2023-05-16T21:21:53.070Z,55.20
2023-05-16T21:24:20.042Z,55.40
2023-05-16T21:26:46.988Z,55.40
2023-05-16T21:29:13.923Z,55.00
2023-05-16T21:31:40.873Z,55.50
2023-05-16T21:34:09.661Z,55.70
2023-05-16T21:36:36.961Z,55.70
2023-05-16T21:39:04.030Z,55.60
2023-05-16T21:41:31.042Z,55.40
2023-05-16T21:43:57.985Z,55.30
2023-05-16T21:46:25.032Z,55.60
2023-05-16T21:48:52.158Z,54.60
2023-05-16T21:51:19.366Z,56.20
2023-05-16T21:53:46.609Z,56.00
2023-05-16T21:56:13.669Z,56.00
2023-05-16T21:58:42.413Z,56.10
2023-05-16T22:01:09.708Z,55.30
2023-05-16T22:03:36.767Z,56.20
2023-05-16T22:06:03.796Z,57.00
2023-05-16T22:08:31.006Z,56.60
2023-05-16T22:10:58.125Z,56.30
2023-05-16T22:13:25.247Z,56.20
2023-05-16T22:16:03.338Z,56.40
2023-05-16T22:18:32.893Z,57.00
2023-05-16T22:21:00.316Z,57.00
2023-05-16T22:23:27.272Z,57.10
2023-05-16T22:25:54.212Z,57.00
2023-05-16T22:28:21.174Z,56.40
2023-05-16T22:30:48.152Z,56.70
2023-05-16T22:33:15.504Z,56.00
2023-05-16T22:35:42.606Z,56.60
2023-05-16T22:38:09.602Z,57.20
2023-05-16T22:40:36.750Z,57.50
2023-05-16T22:43:04.134Z,56.90
2023-05-16T22:45:31.108Z,57.40
2023-05-16T22:47:58.150Z,56.20
2023-05-16T22:50:25.131Z,56.90
2023-05-16T22:52:52.070Z,57.50
2023-05-16T22:55:19.175Z,56.80
2023-05-16T22:57:46.312Z,57.80
2023-05-16T23:00:13.741Z,57.60
2023-05-16T23:02:40.782Z,57.80
2023-05-16T23:05:08.380Z,57.90
2023-05-16T23:07:35.452Z,57.30
2023-05-16T23:10:05.121Z,58.00
2023-05-16T23:12:32.174Z,57.90
2023-05-16T23:14:59.193Z,58.20
2023-05-16T23:17:26.239Z,58.30
2023-05-16T23:19:53.277Z,57.70
2023-05-16T23:22:20.399Z,58.00
2023-05-16T23:24:47.345Z,57.80
2023-05-16T23:27:14.435Z,58.30
2023-05-16T23:29:41.397Z,58.30
2023-05-16T23:32:08.588Z,58.60
2023-05-16T23:34:35.642Z,58.60
2023-05-16T23:37:02.648Z,58.30
2023-05-16T23:39:29.620Z,58.50
2023-05-16T23:41:56.576Z,58.30
2023-05-16T23:44:23.555Z,58.50
2023-05-16T23:46:50.626Z,58.50
2023-05-16T23:49:17.645Z,58.60
2023-05-16T23:51:56.816Z,57.60
2023-05-16T23:54:26.229Z,58.30
2023-05-16T23:56:53.419Z,58.10
2023-05-16T23:59:20.598Z,58.60
